Strona główna
METAR-TAF:

METAR-TAF

Lotnisko :

Piacenza, Włochy

Szerokość geograficzna: 44-55N, Długość geograficzna: 009-44E, wysokość: 134 m

Aktualna obserwacja pogody

Raport powstał 36 minut temu, godzina 11:55 UTC
Wiatr 4 kt od północno-północny wschód
Temperatura 29°C
Wilgotność 52%
Ciśnienie 1012 hPa
Widzialność 10 km lub więcej
Brak chmur poniżej 1500 m i brak chmur cumulonimbus

METAR: LIMS 171155Z 03004KT CAVOK 29/18 Q1012 RMK FEW FEW200 VIS MIN 9999 WIND THR30 08004KT BLU

czas: 14:31 (12:31 UTC)


TAF: brakujący

Obserwacja i prognoza pogody dla ponad 4000 lotnisk (raport METAR i TAF).

Dostępne stacje oznaczono żółtymi i czerwonymi punktami na mapie.

Najedź kursorem aby zobaczyć nazwę stacji.

Kliknij aby zobaczyć obserwacje i prognozy pogody.

Aby zmienić mapę: kliknij na zielony przycisk z czarnym krzyżykiem, aby powiększyć; na zielony przycisk z myślnikiem, aby pomniejszyć; na zielone strzałki, aby przejść do map sąsiednich.


METAR-TAF: